createdAt,value
2018-06-23T00:01:10.396Z,9.97
2018-06-23T00:03:40.366Z,8.67
2018-06-23T00:06:10.153Z,10.37
2018-06-23T00:08:39.993Z,10.70
2018-06-23T00:11:09.753Z,7.87
2018-06-23T00:13:39.456Z,14.63
2018-06-23T00:16:09.665Z,9.77
2018-06-23T00:18:39.380Z,7.03
2018-06-23T00:21:09.917Z,11.13
2018-06-23T00:23:39.595Z,7.77
2018-06-23T00:26:29.288Z,8.37
2018-06-23T00:28:59.993Z,11.37
2018-06-23T00:31:29.811Z,10.93
2018-06-23T00:33:59.517Z,12.77
2018-06-23T00:36:29.256Z,8.80
2018-06-23T00:38:59.456Z,10.97
2018-06-23T00:41:29.221Z,10.63
2018-06-23T00:43:59.391Z,11.83
2018-06-23T00:46:29.339Z,8.17
2018-06-23T00:48:59.082Z,10.67
2018-06-23T00:51:28.890Z,17.27
2018-06-23T00:54:00.085Z,10.53
2018-06-23T00:56:29.778Z,12.93
2018-06-23T00:59:17.309Z,11.77
2018-06-23T01:01:47.600Z,11.80
2018-06-23T01:04:17.368Z,12.43
2018-06-23T01:06:47.128Z,9.97
2018-06-23T01:09:18.376Z,12.13
2018-06-23T01:11:49.185Z,10.17
2018-06-23T01:14:19.117Z,13.40
2018-06-23T01:16:49.031Z,14.97
2018-06-23T01:19:18.789Z,13.97
2018-06-23T01:21:48.984Z,14.30
2018-06-23T01:24:18.780Z,16.63
2018-06-23T01:26:48.581Z,8.77
2018-06-23T01:29:19.232Z,12.37
2018-06-23T01:31:48.965Z,13.30
2018-06-23T01:34:18.690Z,13.77
2018-06-23T01:36:48.534Z,13.60
2018-06-23T01:39:18.699Z,15.43
2018-06-23T01:41:48.452Z,14.97
2018-06-23T01:44:18.981Z,13.57
2018-06-23T01:46:48.804Z,9.63
2018-06-23T01:49:18.625Z,13.83
2018-06-23T01:51:48.370Z,16.87
2018-06-23T01:54:18.738Z,11.17
2018-06-23T01:56:48.570Z,12.47
2018-06-23T01:59:18.401Z,13.93
2018-06-23T02:01:48.255Z,13.40
2018-06-23T02:04:17.957Z,16.97
2018-06-23T02:06:47.643Z,17.87
2018-06-23T02:09:17.324Z,15.10
2018-06-23T02:11:47.035Z,16.17
2018-06-23T02:14:22.483Z,11.57
2018-06-23T02:16:57.344Z,11.77
2018-06-23T02:19:32.318Z,13.70
2018-06-23T02:22:07.141Z,14.43
2018-06-23T02:24:42.080Z,11.60
2018-06-23T02:27:17.008Z,10.17
2018-06-23T02:29:51.721Z,16.23
2018-06-23T02:32:26.634Z,13.17
2018-06-23T02:35:11.609Z,13.40
2018-06-23T02:37:41.311Z,12.50
2018-06-23T02:40:12.142Z,16.30
2018-06-23T02:42:41.910Z,11.70
2018-06-23T02:45:12.500Z,16.07
2018-06-23T02:47:42.134Z,13.50
2018-06-23T02:50:11.838Z,18.13
2018-06-23T02:52:41.559Z,11.73
2018-06-23T02:55:11.226Z,14.87
2018-06-23T02:57:41.073Z,11.73
2018-06-23T03:00:10.846Z,16.07
2018-06-23T03:02:40.454Z,12.53
2018-06-23T03:05:10.154Z,11.23
2018-06-23T03:07:39.870Z,11.40
2018-06-23T03:10:10.011Z,13.17
2018-06-23T03:12:39.739Z,12.77
2018-06-23T03:15:10.329Z,14.53
2018-06-23T03:17:40.998Z,13.87
2018-06-23T03:20:10.898Z,8.47
2018-06-23T03:22:41.294Z,12.47
2018-06-23T03:25:10.910Z,11.63
2018-06-23T03:27:41.502Z,11.63
2018-06-23T03:30:11.834Z,13.80
2018-06-23T03:32:43.013Z,12.70
2018-06-23T03:35:13.135Z,15.73
2018-06-23T03:37:42.891Z,11.10
2018-06-23T03:40:12.999Z,13.83
2018-06-23T03:42:42.716Z,16.20
2018-06-23T03:45:12.439Z,13.77
2018-06-23T03:47:42.383Z,13.50
2018-06-23T03:50:13.548Z,15.13
2018-06-23T03:52:43.274Z,12.83
2018-06-23T03:55:12.937Z,11.13
2018-06-23T03:57:42.673Z,14.53
2018-06-23T04:00:12.362Z,17.50
2018-06-23T04:02:42.734Z,12.10
2018-06-23T04:05:13.155Z,13.10
2018-06-23T04:07:42.831Z,14.97
2018-06-23T04:10:12.542Z,11.27
2018-06-23T04:12:42.262Z,13.80
2018-06-23T04:15:11.925Z,13.73
2018-06-23T04:17:42.077Z,13.70
2018-06-23T04:20:11.729Z,13.10
2018-06-23T04:22:41.377Z,12.83
2018-06-23T04:25:11.371Z,15.30
2018-06-23T04:27:40.945Z,9.77
2018-06-23T04:30:10.655Z,16.07
2018-06-23T04:32:40.373Z,12.17
2018-06-23T04:35:10.096Z,11.93
2018-06-23T04:37:39.367Z,12.40
2018-06-23T04:40:09.151Z,13.50
2018-06-23T04:42:38.832Z,10.03
2018-06-23T04:45:08.488Z,14.33
2018-06-23T04:47:38.441Z,11.00
2018-06-23T04:50:07.798Z,8.80
2018-06-23T04:52:37.597Z,9.03
2018-06-23T04:55:07.421Z,10.30
2018-06-23T04:57:37.059Z,10.13
2018-06-23T05:00:06.823Z,16.97
2018-06-23T05:02:36.534Z,14.80
2018-06-23T05:05:07.127Z,8.27
2018-06-23T05:07:36.923Z,11.90
2018-06-23T05:10:06.594Z,10.93
2018-06-23T05:12:37.139Z,8.80
2018-06-23T05:15:07.002Z,14.40
2018-06-23T05:17:36.508Z,10.67
2018-06-23T05:20:06.270Z,9.80
2018-06-23T05:22:36.137Z,8.73
2018-06-23T05:25:06.310Z,10.47
2018-06-23T05:27:35.975Z,9.70
2018-06-23T05:30:06.240Z,9.83
2018-06-23T05:32:35.904Z,7.50
2018-06-23T05:35:07.514Z,14.13
2018-06-23T05:37:38.950Z,10.13
2018-06-23T05:40:09.574Z,6.63
2018-06-23T05:44:08.301Z,9.23
2018-06-23T05:46:37.995Z,7.20
2018-06-23T05:49:07.691Z,6.80
2018-06-23T05:51:37.558Z,8.43
2018-06-23T05:54:07.424Z,5.93
2018-06-23T05:56:37.153Z,4.60
2018-06-23T05:59:07.417Z,6.23
2018-06-23T06:01:37.500Z,5.30
2018-06-23T06:04:07.194Z,6.90
2018-06-23T06:06:36.821Z,8.33
2018-06-23T06:09:10.855Z,6.90
2018-06-23T06:11:40.549Z,8.60
2018-06-23T06:14:10.171Z,7.27
2018-06-23T06:17:24.216Z,6.10
2018-06-23T06:19:56.095Z,7.70
2018-06-23T06:22:27.862Z,6.20
2018-06-23T06:24:57.770Z,5.20
2018-06-23T06:27:27.470Z,8.67
2018-06-23T06:29:58.698Z,4.80
2018-06-23T06:32:28.872Z,7.30
2018-06-23T06:34:58.852Z,8.13
2018-06-23T06:37:28.633Z,8.53
2018-06-23T06:39:58.705Z,9.17
2018-06-23T06:42:28.415Z,7.50
2018-06-23T06:44:58.134Z,7.50
2018-06-23T06:47:27.854Z,8.67
2018-06-23T06:49:57.507Z,6.93
2018-06-23T06:52:27.179Z,7.70
2018-06-23T06:54:57.323Z,8.57
2018-06-23T06:57:27.340Z,8.60
2018-06-23T06:59:57.151Z,4.60
2018-06-23T07:02:26.847Z,4.67
2018-06-23T07:04:56.796Z,7.33
2018-06-23T07:07:26.500Z,4.47
2018-06-23T07:09:56.259Z,4.50
2018-06-23T07:12:26.034Z,5.60
2018-06-23T07:14:57.089Z,3.77
2018-06-23T07:17:26.862Z,4.23
2018-06-23T07:19:56.620Z,5.50
2018-06-23T07:22:26.333Z,3.47
2018-06-23T07:24:56.656Z,3.13
2018-06-23T07:27:26.560Z,3.50
2018-06-23T07:29:59.100Z,3.20
2018-06-23T07:32:28.841Z,3.93
2018-06-23T07:34:59.196Z,3.83
2018-06-23T07:37:30.392Z,3.10
2018-06-23T07:40:00.299Z,3.40
2018-06-23T07:42:30.786Z,3.10
2018-06-23T07:45:01.265Z,3.12
2018-06-23T07:47:33.261Z,3.13
2018-06-23T07:50:03.244Z,2.77
2018-06-23T07:52:33.305Z,2.53
2018-06-23T07:55:03.019Z,4.50
2018-06-23T07:57:32.682Z,4.23
2018-06-23T08:00:03.487Z,3.87
2018-06-23T08:02:33.270Z,5.63
2018-06-23T08:05:03.033Z,4.87
2018-06-23T08:07:32.665Z,5.63
2018-06-23T08:10:03.837Z,8.40
2018-06-23T08:12:34.247Z,7.67
2018-06-23T08:15:05.768Z,8.73
2018-06-23T08:17:38.640Z,7.53
2018-06-23T08:20:10.577Z,11.03
2018-06-23T08:22:40.274Z,13.17
2018-06-23T08:25:11.191Z,9.20
2018-06-23T08:27:42.010Z,10.60
2018-06-23T08:30:13.232Z,9.93
2018-06-23T08:32:43.997Z,11.00
2018-06-23T08:35:15.382Z,8.47
2018-06-23T08:37:46.663Z,11.63
2018-06-23T08:40:17.633Z,10.50
2018-06-23T08:42:48.982Z,11.83
2018-06-23T08:45:21.587Z,13.10
2018-06-23T08:47:54.357Z,11.13
2018-06-23T08:50:26.477Z,10.17
2018-06-23T08:53:00.358Z,8.10
2018-06-23T08:55:32.480Z,11.40
2018-06-23T08:58:03.278Z,9.80
2018-06-23T09:00:38.985Z,9.43
2018-06-23T09:03:12.505Z,9.53
2018-06-23T09:05:43.345Z,8.47
2018-06-23T09:08:13.947Z,11.77
2018-06-23T09:10:46.340Z,8.30
2018-06-23T09:13:17.650Z,11.73
2018-06-23T09:15:47.548Z,9.43
2018-06-23T09:18:17.736Z,9.70
2018-06-23T09:20:48.200Z,10.63
2018-06-23T09:23:18.785Z,10.83
2018-06-23T09:25:51.718Z,10.23
2018-06-23T09:28:22.275Z,8.30
2018-06-23T09:30:53.285Z,10.80
2018-06-23T09:33:24.272Z,9.37
2018-06-23T09:36:00.202Z,10.50
2018-06-23T09:38:31.904Z,11.37
2018-06-23T09:41:01.649Z,9.90
2018-06-23T09:43:31.448Z,9.90
2018-06-23T09:46:02.179Z,7.30
2018-06-23T09:48:33.393Z,9.80
2018-06-23T09:51:06.560Z,8.30
2018-06-23T09:53:38.724Z,8.17
2018-06-23T09:56:09.487Z,7.47
2018-06-23T09:58:40.807Z,11.10
2018-06-23T10:01:14.690Z,10.80
2018-06-23T10:03:44.598Z,11.03
2018-06-23T10:06:14.239Z,11.77
2018-06-23T10:08:45.683Z,7.57
2018-06-23T10:11:16.803Z,8.37
2018-06-23T10:13:46.419Z,8.27
2018-06-23T10:16:17.006Z,8.30
2018-06-23T10:18:49.576Z,6.17
2018-06-23T10:21:19.420Z,5.83
2018-06-23T10:23:50.079Z,8.00
2018-06-23T10:26:20.193Z,9.97
2018-06-23T10:28:50.355Z,8.37
2018-06-23T10:31:21.146Z,7.30
2018-06-23T10:33:50.495Z,7.10
2018-06-23T10:36:21.832Z,8.70
2018-06-23T10:38:51.851Z,7.90
2018-06-23T10:41:21.703Z,10.80
2018-06-23T10:43:51.474Z,10.93
2018-06-23T10:46:23.103Z,9.23
2018-06-23T10:48:53.271Z,7.53
2018-06-23T10:51:23.930Z,7.70
2018-06-23T10:53:54.906Z,7.90
2018-06-23T10:56:26.497Z,7.50
2018-06-23T10:58:56.372Z,7.17
2018-06-23T11:01:28.591Z,6.83
2018-06-23T11:03:59.914Z,9.83
2018-06-23T11:06:30.670Z,9.13
2018-06-23T11:09:00.319Z,7.17
2018-06-23T11:11:29.979Z,6.43
2018-06-23T11:14:03.105Z,10.67
2018-06-23T11:16:33.241Z,7.47
2018-06-23T11:19:03.595Z,9.30
2018-06-23T11:21:33.653Z,7.73
2018-06-23T11:24:03.866Z,6.30
2018-06-23T11:26:33.583Z,9.73
2018-06-23T11:29:03.491Z,9.10
2018-06-23T11:31:33.448Z,8.20
2018-06-23T11:34:03.383Z,7.07
2018-06-23T11:36:34.581Z,10.00
2018-06-23T11:39:06.672Z,12.57
2018-06-23T11:41:36.500Z,8.67
2018-06-23T11:44:06.226Z,9.40
2018-06-23T11:46:39.069Z,7.63
2018-06-23T11:49:08.650Z,9.77
2018-06-23T11:51:39.010Z,11.37
2018-06-23T11:54:08.730Z,8.20
2018-06-23T11:56:38.455Z,8.50
2018-06-23T11:59:09.141Z,7.13
2018-06-23T12:01:38.876Z,11.33
2018-06-23T12:04:08.938Z,8.93
2018-06-23T12:06:40.134Z,7.50
2018-06-23T12:09:09.881Z,10.27
2018-06-23T12:11:41.071Z,10.87
2018-06-23T12:14:10.924Z,8.47
2018-06-23T12:16:41.462Z,9.83
2018-06-23T12:19:11.784Z,12.83
2018-06-23T12:21:41.778Z,10.30
2018-06-23T12:24:11.765Z,8.90
2018-06-23T12:26:46.468Z,9.87
2018-06-23T12:29:20.055Z,7.90
2018-06-23T12:31:49.862Z,9.37
2018-06-23T12:34:20.291Z,11.17
2018-06-23T12:36:51.018Z,8.30
2018-06-23T12:39:20.747Z,10.90
2018-06-23T12:41:51.267Z,9.13
2018-06-23T12:44:21.676Z,9.10
2018-06-23T12:46:51.317Z,9.77
2018-06-23T12:49:20.971Z,10.00
2018-06-23T12:51:50.672Z,7.60
2018-06-23T12:54:20.420Z,10.23
2018-06-23T12:56:50.589Z,9.33
2018-06-23T12:59:20.366Z,6.50
2018-06-23T13:01:50.854Z,8.30
2018-06-23T13:04:20.993Z,7.60
2018-06-23T13:06:51.343Z,9.90
2018-06-23T13:09:21.150Z,6.60
2018-06-23T13:11:50.839Z,8.53
2018-06-23T13:14:20.698Z,8.00
2018-06-23T13:16:50.725Z,8.43
2018-06-23T13:19:20.533Z,9.17
2018-06-23T13:21:53.261Z,7.50
2018-06-23T13:24:23.987Z,10.03
2018-06-23T13:26:54.636Z,6.67
2018-06-23T13:29:24.311Z,9.00
2018-06-23T13:31:54.712Z,7.20
2018-06-23T13:34:26.244Z,13.17
2018-06-23T13:36:56.029Z,9.73
2018-06-23T13:39:25.794Z,10.90
2018-06-23T13:41:56.517Z,7.83
2018-06-23T13:44:27.948Z,8.33
2018-06-23T13:47:00.016Z,9.13
2018-06-23T13:49:29.989Z,7.80
2018-06-23T13:52:00.612Z,9.60
2018-06-23T13:54:30.432Z,6.97
2018-06-23T13:57:01.485Z,7.40
2018-06-23T13:59:31.215Z,8.50
2018-06-23T14:02:00.968Z,8.13
2018-06-23T14:04:30.705Z,8.87
2018-06-23T14:07:01.477Z,7.33
2018-06-23T14:09:31.153Z,7.83
2018-06-23T14:12:02.690Z,6.53
2018-06-23T14:14:33.983Z,8.93
2018-06-23T14:17:05.363Z,9.67
2018-06-23T14:19:35.076Z,7.87
2018-06-23T14:22:05.745Z,7.63
2018-06-23T14:24:38.380Z,8.70
2018-06-23T14:27:14.375Z,9.23
2018-06-23T14:29:48.524Z,9.67
2018-06-23T14:32:20.107Z,8.13
2018-06-23T14:34:52.923Z,7.90
2018-06-23T14:37:26.666Z,6.63
2018-06-23T14:40:00.405Z,7.00
2018-06-23T14:42:31.253Z,8.35
2018-06-23T14:45:06.100Z,7.00
2018-06-23T14:47:36.658Z,13.17
2018-06-23T14:50:07.494Z,7.73
2018-06-23T14:52:37.503Z,8.27
2018-06-23T14:55:07.234Z,8.33
2018-06-23T14:57:39.362Z,7.93
2018-06-23T15:00:09.405Z,9.23
2018-06-23T15:02:39.785Z,8.43
2018-06-23T15:05:10.442Z,8.87
2018-06-23T15:07:41.305Z,11.73
2018-06-23T15:10:29.868Z,9.33
2018-06-23T15:13:14.847Z,9.33
2018-06-23T15:15:46.718Z,9.73
2018-06-23T15:18:22.083Z,7.90
2018-06-23T15:20:52.313Z,5.20
2018-06-23T15:23:22.836Z,8.40
2018-06-23T15:25:52.624Z,7.70
2018-06-23T15:28:22.355Z,7.47
2018-06-23T15:30:52.173Z,7.67
2018-06-23T15:33:21.951Z,7.53
2018-06-23T15:35:52.640Z,6.43
2018-06-23T15:38:22.246Z,9.33
2018-06-23T15:40:51.885Z,5.37
2018-06-23T15:43:22.339Z,9.60
2018-06-23T15:45:51.965Z,9.97
2018-06-23T15:48:21.653Z,8.47
2018-06-23T15:50:51.327Z,10.10
2018-06-23T15:53:20.942Z,8.33
2018-06-23T15:55:50.925Z,7.63
2018-06-23T15:58:21.587Z,10.00
2018-06-23T16:00:52.381Z,6.97
2018-06-23T16:03:22.069Z,7.67
2018-06-23T16:05:52.245Z,7.67
2018-06-23T16:08:22.127Z,6.23
2018-06-23T16:10:51.822Z,7.90
2018-06-23T16:13:21.725Z,5.80
2018-06-23T16:15:52.722Z,6.70
2018-06-23T16:18:22.432Z,7.12
2018-06-23T16:20:52.783Z,6.93
2018-06-23T16:23:22.505Z,7.83
2018-06-23T16:25:52.366Z,5.23
2018-06-23T16:28:23.244Z,9.00
2018-06-23T16:30:54.020Z,6.63
2018-06-23T16:33:23.895Z,9.10
2018-06-23T16:35:54.002Z,6.63
2018-06-23T16:38:24.272Z,8.27
2018-06-23T16:40:55.811Z,8.50
2018-06-23T16:43:25.848Z,7.20
2018-06-23T16:45:55.561Z,10.43
2018-06-23T16:48:25.914Z,8.35
2018-06-23T16:50:55.975Z,10.57
2018-06-23T16:53:25.693Z,8.80
2018-06-23T16:55:55.524Z,7.20
2018-06-23T16:58:26.614Z,8.93
2018-06-23T17:00:56.482Z,10.23
2018-06-23T17:03:26.738Z,7.40
2018-06-23T17:05:57.056Z,6.73
2018-06-23T17:08:27.302Z,8.97
2018-06-23T17:10:58.714Z,7.27
2018-06-23T17:13:28.518Z,9.90
2018-06-23T17:15:57.887Z,7.87
2018-06-23T17:18:27.599Z,12.33
2018-06-23T17:20:57.341Z,6.30
2018-06-23T17:23:26.994Z,7.70
2018-06-23T17:25:56.738Z,9.03
2018-06-23T17:28:26.408Z,6.80
2018-06-23T17:30:56.173Z,9.33
2018-06-23T17:33:26.042Z,9.00
2018-06-23T17:35:56.257Z,6.50
2018-06-23T17:38:26.172Z,8.90
2018-06-23T17:40:56.052Z,7.97
2018-06-23T17:43:25.887Z,7.57
2018-06-23T17:45:55.573Z,9.27
2018-06-23T17:48:24.858Z,7.60
2018-06-23T17:50:54.528Z,7.50
2018-06-23T17:53:24.972Z,6.40
2018-06-23T17:55:54.798Z,5.87
2018-06-23T17:58:25.697Z,6.80
2018-06-23T18:00:55.510Z,6.83
2018-06-23T18:03:26.035Z,7.87
2018-06-23T18:05:56.382Z,4.60
2018-06-23T18:08:26.139Z,8.73
2018-06-23T18:10:55.904Z,5.07
2018-06-23T18:13:26.246Z,8.10
2018-06-23T18:15:55.927Z,5.57
2018-06-23T18:18:26.463Z,5.93
2018-06-23T18:20:57.128Z,6.13
2018-06-23T18:23:27.286Z,4.67
2018-06-23T18:25:57.711Z,7.87
2018-06-23T18:28:27.721Z,7.30
2018-06-23T18:30:57.676Z,6.63
2018-06-23T18:33:27.482Z,6.07
2018-06-23T18:35:57.264Z,5.20
2018-06-23T18:38:27.027Z,6.90
2018-06-23T18:40:56.919Z,5.40
2018-06-23T18:43:26.637Z,7.67
2018-06-23T18:45:56.410Z,5.63
2018-06-23T18:48:26.136Z,9.80
2018-06-23T18:50:55.969Z,7.20
2018-06-23T18:53:25.744Z,7.30
2018-06-23T18:55:55.220Z,5.17
2018-06-23T18:58:25.883Z,6.77
2018-06-23T19:00:55.825Z,7.93
2018-06-23T19:03:25.528Z,4.20
2018-06-23T19:05:55.340Z,9.37
2018-06-23T19:08:25.084Z,7.40
2018-06-23T19:10:54.814Z,11.93
2018-06-23T19:13:25.334Z,7.70
2018-06-23T19:15:56.696Z,9.80
2018-06-23T19:18:26.503Z,5.33
2018-06-23T19:20:57.031Z,8.73
2018-06-23T19:23:27.306Z,7.73
2018-06-23T19:25:57.045Z,7.37
2018-06-23T19:28:26.886Z,8.30
2018-06-23T19:30:57.986Z,5.40
2018-06-23T19:33:28.779Z,6.77
2018-06-23T19:35:58.458Z,6.80
2018-06-23T19:38:28.378Z,8.77
2018-06-23T19:40:58.861Z,8.37
2018-06-23T19:43:28.473Z,8.57
2018-06-23T19:45:58.229Z,5.57
2018-06-23T19:48:28.367Z,5.13
2018-06-23T19:50:58.558Z,7.37
2018-06-23T19:53:28.202Z,6.10
2018-06-23T19:55:58.035Z,9.50
2018-06-23T19:58:27.804Z,8.80
2018-06-23T20:00:57.857Z,7.90
2018-06-23T20:03:27.569Z,7.37
2018-06-23T20:05:57.299Z,10.03
2018-06-23T20:08:27.904Z,8.57
2018-06-23T20:10:58.116Z,5.80
2018-06-23T20:13:27.957Z,6.20
2018-06-23T20:15:58.026Z,6.53
2018-06-23T20:18:28.574Z,9.00
2018-06-23T20:20:59.213Z,6.80
2018-06-23T20:23:28.974Z,5.43
2018-06-23T20:25:59.114Z,5.90
2018-06-23T20:28:28.983Z,8.47
2018-06-23T20:30:58.672Z,7.83
2018-06-23T20:33:28.406Z,5.37
2018-06-23T20:35:58.608Z,9.07
2018-06-23T20:38:29.004Z,6.90
2018-06-23T20:40:58.724Z,6.23
2018-06-23T20:43:28.625Z,6.57
2018-06-23T20:45:58.389Z,6.90
2018-06-23T20:48:28.338Z,6.20
2018-06-23T20:50:58.037Z,7.00
2018-06-23T20:53:28.852Z,8.80
2018-06-23T20:55:59.133Z,7.03
2018-06-23T20:58:28.943Z,5.73
2018-06-23T21:00:58.855Z,7.33
2018-06-23T21:03:30.017Z,6.40
2018-06-23T21:05:59.800Z,7.10
2018-06-23T21:08:29.613Z,6.17
2018-06-23T21:11:00.034Z,5.67
2018-06-23T21:13:29.710Z,4.93
2018-06-23T21:16:00.096Z,5.83
2018-06-23T21:18:29.459Z,4.87
2018-06-23T21:20:59.283Z,6.33
2018-06-23T21:23:29.106Z,5.13
2018-06-23T21:25:58.832Z,4.30
2018-06-23T21:28:29.315Z,4.23
2018-06-23T21:31:00.605Z,7.23
2018-06-23T21:33:30.454Z,5.90
2018-06-23T21:36:00.448Z,5.77
2018-06-23T21:38:30.460Z,5.83
2018-06-23T21:41:00.106Z,6.47
2018-06-23T21:43:29.830Z,4.27
2018-06-23T21:46:00.311Z,5.03
2018-06-23T21:48:30.165Z,6.45
2018-06-23T21:50:59.857Z,6.17
2018-06-23T21:53:29.768Z,6.43
2018-06-23T21:55:59.505Z,3.13
2018-06-23T21:58:29.398Z,5.27
2018-06-23T22:00:59.050Z,3.93
2018-06-23T22:03:28.695Z,3.63
2018-06-23T22:06:00.456Z,5.93
2018-06-23T22:08:30.135Z,4.40
2018-06-23T22:10:59.604Z,2.93
2018-06-23T22:13:29.309Z,4.17
2018-06-23T22:15:58.988Z,3.70
2018-06-23T22:18:30.712Z,4.90
2018-06-23T22:21:01.944Z,2.97
2018-06-23T22:23:32.009Z,5.00
2018-06-23T22:26:01.772Z,5.47
2018-06-23T22:28:33.770Z,5.27
2018-06-23T22:31:03.595Z,4.63
2018-06-23T22:33:33.795Z,8.27
2018-06-23T22:36:03.212Z,3.97
2018-06-23T22:38:33.843Z,6.80
2018-06-23T22:41:04.508Z,5.13
2018-06-23T22:43:34.247Z,5.60
2018-06-23T22:46:04.065Z,4.17
2018-06-23T22:48:34.447Z,4.63
2018-06-23T22:51:04.719Z,4.67
2018-06-23T22:53:41.370Z,3.70
2018-06-23T22:56:12.012Z,5.00
2018-06-23T22:58:42.706Z,3.87
2018-06-23T23:01:12.506Z,3.77
2018-06-23T23:03:42.461Z,6.00
2018-06-23T23:06:12.106Z,4.60
2018-06-23T23:08:42.503Z,4.70
2018-06-23T23:11:13.208Z,3.80
2018-06-23T23:13:42.912Z,6.00
2018-06-23T23:16:12.635Z,5.80
2018-06-23T23:18:42.388Z,3.87
2018-06-23T23:21:27.752Z,3.37
2018-06-23T23:23:57.616Z,4.27
2018-06-23T23:26:28.056Z,5.73
2018-06-23T23:28:58.526Z,5.37
2018-06-23T23:31:28.393Z,5.27
2018-06-23T23:33:58.110Z,3.80
2018-06-23T23:36:27.850Z,6.87
2018-06-23T23:38:57.823Z,4.87
2018-06-23T23:41:28.232Z,5.53
2018-06-23T23:43:57.857Z,5.50
2018-06-23T23:46:27.733Z,6.20
2018-06-23T23:49:00.384Z,4.87
2018-06-23T23:51:30.090Z,4.97
2018-06-23T23:54:00.153Z,4.33
2018-06-23T23:56:29.584Z,4.97
2018-06-23T23:58:59.971Z,7.80
